• pl
  • eng

Awiacja
Kliknij na pogrubioną czerwoną nazwę, aby odkodować depeszę. 23:31 16.12.2018
  • WIND
  • SIGNIFICANT EURO
  • SIGNIFICANT
  • SIGMET
  • AIRMET
  • TAF FC
  • TAF FT
  • METAR GG30
  • METAR GG00


METAR EPBY 162230Z 14003KT 8000 SCT023 OVC026 M02/M03 Q1018
R26/590194 =

METAR EPGD 162230Z 17005KT 150V210 7000 OVC028 M02/M03 Q1017
R11/290095 =

METAR EPKK 162230Z VRB03KT 1500 BR FEW003 M08/M09 Q1018 R25/51//95 =

METAR EPKT 162230Z 15007KT 4500 BR NSC M05/M07 Q1017 =

METAR EPLB 162230Z 13006KT 9999 OVC015 M01/M02 Q1020 =

METAR EPLL 162230Z 10003KT 070V140 6000 OVC024 M02/M05 Q1018
R25/29//95 =

METAR EPMO 162230Z 15004KT 110V190 9999 OVC029 M01/M04 Q1020
R08/290195 =

METAR EPPO 162230Z 14007KT 9999 BKN027 M02/M04 Q1017 R10/29//95 =

METAR EPRA 162230Z NIL=

METAR EPRZ 162230Z 09008KT 4500 BR NSC M03/M04 Q1019 R27/1///95 =

METAR EPSC 162230Z 11008KT 9999 FEW026 OVC030 M01/M05 Q1016 =

METAR EPSY 162230Z NIL=

METAR EPWA 162230Z 18004KT 150V210 9999 BKN026 M01/M05 Q1020
R88/2///95 NOSIG=

METAR EPWR 162230Z 14003KT CAVOK M03/M05 Q1017 =

METAR EPZG 162230Z 13004KT 100V170 8000 BKN026 M02/M04 Q1017 =
 METAR EPZG
Lokalizacja:EPZG Zielona Góra Babimost
Czas:22:30 UTC
Średni kierunek wiatru:130 °
Średnia prędkość wiatru:4 węzłów
Kierunek wiatru zmienia się od:100 °
Kierunek wiatru zmienia się do:170 °
Widzialność:8 kilometrów
Pierwsza warstwa chmur:5/8 do 7/8, wysokość podstawy 2600 FT
Temperatura powietrza:-2 °C
Temperatura punktu rosy:-4 °C
Ciśnienie QNH:1017 hPa
Awiacja.imgw.pl jest pogodowym serwisem informacyjnym
Instytutu Meteorologii i Gospodarki Wodnej Państwowego Instytutu Badawczego.
Copyright IMGW PIB 2009-2011© Wszelkie prawa zastrzeżone.